Time;durP1;ratioP1;P1;durP2;ratioP2;P2;SDS_P1;SDS_P2;PMS_P1;PMS_P2;Temp;Humidity;BMP_temperature;BMP_pressure;BME280_temperature;BME280_humidity;BME280_pressure;Samples;Min_cycle;Max_cycle;Signal;HPM_P1;HPM_P2
2021/04/06 00:00:45;;;;;;;58.60;10.08;;;;;;;1.58;80.70;99994.39;1817736;78;21002;-43
2021/04/06 00:03:15;;;;;;;57.23;10.58;;;;;;;1.51;80.77;99991.75;1817691;77;21069;-42
2021/04/06 00:05:48;;;;;;;44.70;13.05;;;;;;;1.46;80.83;99994.23;1786398;79;21288;-42
2021/04/06 00:08:15;;;;;;;22.17;8.55;;;;;;;1.39;80.81;99986.08;1785713;79;21575;-42
2021/04/06 00:10:49;;;;;;;11.65;5.95;;;;;;;1.33;80.95;99991.96;1761375;79;21057;-41
2021/04/06 00:13:17;;;;;;;6.22;5.62;;;;;;;1.27;80.94;99981.69;1786142;79;20923;-42
2021/04/06 00:15:45;;;;;;;10.18;6.67;;;;;;;1.21;80.98;99978.64;1817164;77;20919;-41
2021/04/06 00:18:16;;;;;;;8.30;5.53;;;;;;;1.18;80.97;99978.61;1817069;79;21359;-42
2021/04/06 00:20:44;;;;;;;7.25;5.37;;;;;;;1.12;80.91;99978.53;1817105;78;21600;-42
2021/04/06 00:23:11;;;;;;;10.48;5.58;;;;;;;1.06;81.18;99974.20;1817077;78;21004;-42
2021/04/06 00:25:41;;;;;;;7.28;5.20;;;;;;;0.98;81.24;99976.66;1817104;79;20919;-42
2021/04/06 00:28:12;;;;;;;6.97;5.45;;;;;;;0.88;81.22;99988.84;1761127;79;21451;-42
2021/04/06 00:30:41;;;;;;;9.15;5.42;;;;;;;0.80;81.41;99986.62;1785844;78;21367;-42
2021/04/06 00:33:27;;;;;;;6.08;4.83;;;;;;;0.74;81.59;99986.11;1817120;78;21112;-42
2021/04/06 00:35:59;;;;;;;6.12;3.92;;;;;;;0.67;81.86;99981.33;1787120;79;21113;-42
2021/04/06 00:38:40;;;;;;;5.58;5.00;;;;;;;0.62;82.08;99982.09;1817093;79;21577;-40
2021/04/06 00:41:14;;;;;;;23.00;12.45;;;;;;;0.55;82.34;99987.10;1817221;78;21406;-40
2021/04/06 00:43:43;;;;;;;9.38;6.87;;;;;;;0.51;82.57;99980.25;1817194;79;22316;-40
2021/04/06 00:46:21;;;;;;;66.02;27.95;;;;;;;0.55;82.79;99976.91;1817025;79;20966;-40
2021/04/06 00:48:52;;;;;;;29.32;14.73;;;;;;;0.57;82.98;99984.16;1817252;79;20927;-41
2021/04/06 00:51:21;;;;;;;30.45;10.88;;;;;;;0.63;83.11;99981.25;1761974;79;20919;-41
2021/04/06 00:53:59;;;;;;;33.88;10.95;;;;;;;0.71;83.68;99983.08;1819283;78;21037;-42
2021/04/06 00:56:38;;;;;;;27.37;10.25;;;;;;;0.84;83.55;99981.56;1832140;78;21322;-42
2021/04/06 00:59:10;;;;;;;32.15;10.85;;;;;;;0.95;83.77;99980.88;1832071;78;20934;-41
2021/04/06 01:01:47;;;;;;;27.30;10.28;;;;;;;1.06;83.93;99973.37;1832177;78;20922;-42
2021/04/06 01:04:17;;;;;;;41.02;10.60;;;;;;;1.16;84.08;99974.34;1832099;78;20985;-42
2021/04/06 01:07:07;;;;;;;26.02;9.38;;;;;;;1.28;84.22;99973.20;1832170;78;20989;-42
2021/04/06 01:09:53;;;;;;;44.35;9.80;;;;;;;1.39;84.04;99970.78;1832170;78;21326;-41
2021/04/06 01:12:25;;;;;;;29.10;10.93;;;;;;;1.47;84.04;99974.70;1832171;78;20973;-42
2021/04/06 01:14:54;;;;;;;14.15;8.65;;;;;;;1.49;83.84;99968.75;1832098;78;20946;-42
2021/04/06 01:17:29;;;;;;;15.55;9.05;;;;;;;1.50;84.14;99966.64;1832022;78;21049;-42
2021/04/06 01:20:08;;;;;;;12.63;8.75;;;;;;;1.55;84.07;99965.42;1831783;78;21037;-41
2021/04/06 01:22:36;;;;;;;13.68;9.10;;;;;;;1.60;84.05;99969.31;1831917;78;21343;-41
2021/04/06 01:25:06;;;;;;;16.70;8.50;;;;;;;1.61;84.05;99962.93;1832108;78;20993;-41
2021/04/06 01:27:33;;;;;;;21.90;8.65;;;;;;;1.64;84.20;99962.11;1832185;78;20986;-41
2021/04/06 01:30:01;;;;;;;32.58;9.15;;;;;;;1.67;84.36;99961.73;1832042;78;21009;-42
2021/04/06 01:32:28;;;;;;;21.77;10.13;;;;;;;1.68;84.42;99965.13;1778592;78;21029;-41
2021/04/06 01:34:56;;;;;;;29.10;10.13;;;;;;;1.69;84.68;99964.29;1832077;78;21345;-41
2021/04/06 01:37:25;;;;;;;18.65;9.43;;;;;;;1.71;84.96;99964.75;1832083;78;21069;-41
2021/04/06 01:39:55;;;;;;;14.30;7.83;;;;;;;1.76;84.92;99961.39;1832121;78;20922;-41
2021/04/06 01:42:29;;;;;;;14.35;8.43;;;;;;;1.78;85.06;99964.80;1832046;78;21092;-42
2021/04/06 01:44:57;;;;;;;25.75;9.75;;;;;;;1.82;85.01;99957.61;1832100;77;20898;-41
2021/04/06 01:47:25;;;;;;;13.28;9.23;;;;;;;1.87;85.09;99967.44;1832152;78;21293;-41
2021/04/06 01:49:54;;;;;;;16.52;9.48;;;;;;;1.90;84.96;99967.89;1831998;77;21010;-42
2021/04/06 01:52:23;;;;;;;15.18;9.13;;;;;;;1.90;85.05;99961.52;1831796;78;21077;-42
2021/04/06 01:54:54;;;;;;;22.73;9.60;;;;;;;1.90;85.13;99967.89;1825924;78;20974;-41
2021/04/06 01:57:30;;;;;;;28.07;9.48;;;;;;;1.89;85.08;99970.86;1817062;79;21925;-41
2021/04/06 01:59:55;;;;;;;24.80;9.15;;;;;;;1.85;85.23;99974.23;1816052;79;21194;-41
2021/04/06 02:02:26;;;;;;;21.55;9.40;;;;;;;1.84;85.39;99968.69;1817021;79;20997;-41
2021/04/06 02:04:59;;;;;;;17.73;9.98;;;;;;;1.86;85.60;99972.11;1817012;77;21002;-41
2021/04/06 02:07:30;;;;;;;19.25;8.35;;;;;;;1.88;85.74;99970.42;1817114;79;21464;-42
2021/04/06 02:09:59;;;;;;;17.48;9.93;;;;;;;1.89;85.59;99965.75;1817010;79;20967;-44
2021/04/06 02:12:26;;;;;;;18.90;9.53;;;;;;;1.86;85.73;99963.17;1817005;79;21127;-42
2021/04/06 02:14:57;;;;;;;19.85;10.70;;;;;;;1.85;85.82;99966.56;1816863;79;20942;-43
2021/04/06 02:17:25;;;;;;;21.30;9.75;;;;;;;1.85;85.96;99966.56;1817094;78;21045;-42
2021/04/06 02:19:52;;;;;;;16.52;9.23;;;;;;;1.85;85.97;99969.12;1785546;79;21014;-42
2021/04/06 02:22:20;;;;;;;22.05;10.05;;;;;;;1.85;86.28;99969.12;1817065;79;21059;-41
2021/04/06 02:24:53;;;;;;;13.50;9.60;;;;;;;1.92;86.46;99964.94;1817004;79;21187;-42
2021/04/06 02:27:27;;;;;;;24.40;10.20;;;;;;;1.95;86.50;99964.55;1817034;78;20974;-41
2021/04/06 02:30:00;;;;;;;20.70;10.25;;;;;;;1.99;86.62;99962.86;1817040;79;20963;-41
2021/04/06 02:32:30;;;;;;;16.17;9.70;;;;;;;2.04;86.44;99959.95;1816992;78;21026;-41
2021/04/06 02:35:04;;;;;;;25.88;10.08;;;;;;;2.04;86.38;99952.70;1817031;78;21606;-42
2021/04/06 02:37:34;;;;;;;26.02;10.30;;;;;;;2.02;86.47;99956.50;1817028;78;21365;-41
2021/04/06 02:40:09;;;;;;;32.03;11.10;;;;;;;2.00;86.45;99957.78;1816934;79;21050;-40
2021/04/06 02:42:45;;;;;;;16.27;10.03;;;;;;;2.01;86.45;99953.52;1817010;78;20911;-41
2021/04/06 02:45:20;;;;;;;18.60;9.30;;;;;;;1.96;86.43;99945.84;1817090;77;21006;-40
2021/04/06 02:48:07;;;;;;;18.32;10.05;;;;;;;1.97;86.84;99945.40;1816969;78;21062;-41
2021/04/06 02:50:35;;;;;;;17.40;10.28;;;;;;;2.00;86.84;99950.13;1817016;78;21179;-42
2021/04/06 02:53:10;;;;;;;22.20;10.90;;;;;;;2.01;86.85;99949.69;1816946;79;20986;-42
2021/04/06 02:55:39;;;;;;;19.70;11.30;;;;;;;1.94;86.90;99947.52;1816898;78;20971;-41
2021/04/06 02:58:14;;;;;;;17.67;9.95;;;;;;;1.96;87.00;99951.35;1816889;78;21081;-40
2021/04/06 03:00:42;;;;;;;15.48;10.05;;;;;;;1.97;87.04;99945.40;1817149;77;20931;-41
2021/04/06 03:03:24;;;;;;;19.90;10.68;;;;;;;1.99;87.31;99947.14;1816962;79;21367;-41
2021/04/06 03:06:08;;;;;;;16.48;10.13;;;;;;;2.04;87.30;99950.14;1816994;77;21006;-41
2021/04/06 03:08:37;;;;;;;14.63;10.03;;;;;;;1.99;87.12;99955.20;1817021;78;20999;-41
2021/04/06 03:11:08;;;;;;;21.12;10.85;;;;;;;1.93;87.47;99950.92;1816986;79;21034;-41
2021/04/06 03:13:43;;;;;;;23.10;10.58;;;;;;;1.93;87.61;99953.48;1816896;79;20927;-41
2021/04/06 03:16:11;;;;;;;33.15;11.12;;;;;;;1.94;87.81;99953.03;1786348;79;21368;-41
2021/04/06 03:18:41;;;;;;;18.35;10.08;;;;;;;1.96;87.83;99949.67;1816810;79;21010;-41
2021/04/06 03:21:10;;;;;;;14.40;10.35;;;;;;;1.98;87.95;99954.77;1816986;79;20971;-41
2021/04/06 03:23:38;;;;;;;26.73;10.35;;;;;;;1.98;87.95;99954.36;1816889;79;21003;-41
2021/04/06 03:26:07;;;;;;;19.02;11.43;;;;;;;2.00;88.13;99956.91;1817004;79;20911;-41
2021/04/06 03:28:38;;;;;;;15.23;10.82;;;;;;;2.03;88.12;99959.92;1816975;79;21324;-41
2021/04/06 03:31:14;;;;;;;21.27;10.45;;;;;;;2.04;88.23;99953.98;1816890;79;20939;-41
2021/04/06 03:33:44;;;;;;;18.07;10.30;;;;;;;2.06;88.33;99956.13;1817096;79;20900;-41
2021/04/06 03:38:28;;;;;;;23.45;12.13;;;;;;;2.13;88.39;99948.94;1777031;79;22798;-41
2021/04/06 03:40:56;;;;;;;20.15;11.43;;;;;;;2.12;88.51;99949.78;1720360;82;20955;-41
2021/04/06 03:43:24;;;;;;;19.45;10.72;;;;;;;2.17;88.45;99951.10;1749438;82;21212;-41
2021/04/06 03:46:03;;;;;;;21.12;9.73;;;;;;;2.22;88.50;99950.71;1749422;82;21039;-41
2021/04/06 03:48:32;;;;;;;18.12;9.90;;;;;;;2.28;88.45;99950.34;1749534;81;21595;-47
2021/04/06 03:51:03;;;;;;;16.80;9.68;;;;;;;2.36;88.39;99947.85;1749427;81;21155;-42
2021/04/06 03:53:41;;;;;;;19.77;10.32;;;;;;;2.42;88.29;99954.71;1749616;81;21330;-43
2021/04/06 03:56:14;;;;;;;45.85;10.35;;;;;;;2.52;88.11;99952.64;1749390;81;21409;-43
2021/04/06 03:58:46;;;;;;;16.65;9.08;;;;;;;2.64;87.96;99950.99;1749389;82;20979;-42
2021/04/06 04:01:13;;;;;;;40.65;10.13;;;;;;;2.76;87.81;99947.66;1749550;82;21027;-41
2021/04/06 04:03:41;;;;;;;19.60;10.20;;;;;;;2.81;87.26;99957.06;1749422;82;20995;-44
2021/04/06 04:06:10;;;;;;;15.70;8.98;;;;;;;2.89;87.03;99944.33;1749451;81;21043;-41
2021/04/06 04:08:37;;;;;;;19.77;9.70;;;;;;;2.94;86.57;99945.20;1749443;82;21376;-41
2021/04/06 04:11:05;;;;;;;15.95;9.35;;;;;;;3.00;86.24;99945.22;1749363;82;20995;-47
2021/04/06 04:13:34;;;;;;;28.45;9.35;;;;;;;3.08;86.15;99936.75;1749399;80;21006;-44
2021/04/06 04:16:02;;;;;;;18.85;8.10;;;;;;;3.15;85.85;99938.47;1749375;82;21604;-42
2021/04/06 04:18:30;;;;;;;15.83;8.73;;;;;;;3.26;85.76;99941.07;1745033;82;21121;-42
2021/04/06 04:20:58;;;;;;;16.73;8.93;;;;;;;3.30;85.18;99930.86;1719525;82;21198;-42
2021/04/06 04:23:26;;;;;;;19.82;9.18;;;;;;;3.39;84.96;99937.69;1719540;83;21030;-42
2021/04/06 04:25:54;;;;;;;15.53;8.63;;;;;;;3.48;84.61;99928.34;1719623;83;21602;-42
2021/04/06 04:28:21;;;;;;;13.48;8.80;;;;;;;3.59;84.47;99945.84;1690993;83;21054;-41
2021/04/06 04:30:52;;;;;;;12.35;8.70;;;;;;;3.65;84.08;99945.01;1719581;83;20939;-42
2021/04/06 04:33:19;;;;;;;15.72;8.48;;;;;;;3.72;83.84;99951.43;1719529;82;21607;-42
2021/04/06 04:35:47;;;;;;;13.60;7.90;;;;;;;3.80;83.73;99945.45;1719563;83;21042;-41
2021/04/06 04:38:14;;;;;;;17.32;9.20;;;;;;;3.90;83.37;99945.05;1709408;82;21042;-42
2021/04/06 04:40:44;;;;;;;24.65;8.43;;;;;;;3.98;83.00;99949.73;1706739;84;20995;-42
2021/04/06 04:43:12;;;;;;;16.30;8.20;;;;;;;4.04;82.64;99943.33;1706807;84;21015;-41
2021/04/06 04:45:41;;;;;;;16.35;8.20;;;;;;;4.16;82.51;99951.03;1706916;84;21375;-41
2021/04/06 04:48:09;;;;;;;14.28;8.33;;;;;;;4.26;81.43;99957.01;1706495;84;21025;-41
2021/04/06 04:50:37;;;;;;;12.53;8.13;;;;;;;4.26;81.43;99957.01;1706281;82;20947;-42
2021/04/06 04:53:04;;;;;;;13.15;7.85;;;;;;;4.34;81.46;99962.13;1706211;84;21011;-42
2021/04/06 04:55:32;;;;;;;16.55;7.87;;;;;;;4.46;81.34;99958.27;1686308;84;20995;-42
2021/04/06 04:58:00;;;;;;;14.95;7.83;;;;;;;4.62;80.06;99957.38;1706230;84;21441;-42
2021/04/06 05:00:28;;;;;;;10.53;7.67;;;;;;;4.62;80.06;99957.38;1706245;84;21027;-41
2021/04/06 05:02:56;;;;;;;16.12;8.05;;;;;;;4.68;79.82;99963.36;1706210;83;21019;-42
2021/04/06 05:05:24;;;;;;;12.63;7.62;;;;;;;4.84;78.61;99959.48;1706192;83;21101;-41
2021/04/06 05:07:52;;;;;;;9.75;7.60;;;;;;;4.84;79.26;99962.05;1706263;84;20912;-41
2021/04/06 05:10:20;;;;;;;22.58;8.05;;;;;;;4.84;79.26;99962.05;1706206;83;21583;-41
2021/04/06 05:12:48;;;;;;;11.78;7.53;;;;;;;4.92;79.00;99960.31;1706200;84;20948;-41
2021/04/06 05:15:16;;;;;;;18.35;8.05;;;;;;;4.97;78.60;99961.59;1706297;83;20912;-41
2021/04/06 05:17:44;;;;;;;22.90;7.95;;;;;;;5.08;78.15;99958.98;1706230;83;21080;-41
2021/04/06 05:20:12;;;;;;;27.80;7.78;;;;;;;5.07;77.94;99961.13;1706207;82;20972;-41
2021/04/06 05:22:40;;;;;;;25.68;8.60;;;;;;;5.06;78.24;99953.02;1706254;84;21208;-41
2021/04/06 05:25:09;;;;;;;19.50;7.42;;;;;;;5.15;77.70;99958.94;1706182;84;20951;-41
2021/04/06 05:27:37;;;;;;;26.70;7.35;;;;;;;5.20;78.05;99955.08;1706337;84;21066;-41
2021/04/06 05:30:06;;;;;;;20.85;7.58;;;;;;;5.31;77.89;99957.59;1706129;84;20931;-42
2021/04/06 05:32:34;;;;;;;18.80;7.65;;;;;;;5.40;77.85;99965.23;1706228;84;21035;-42
2021/04/06 05:35:02;;;;;;;27.13;7.17;;;;;;;5.45;76.79;99957.11;1706236;84;21205;-41
2021/04/06 05:37:31;;;;;;;33.85;6.87;;;;;;;5.48;76.99;99951.53;1708698;83;21030;-41
2021/04/06 05:40:00;;;;;;;25.72;6.72;;;;;;;5.54;76.17;99952.77;1714049;83;21027;-41
2021/04/06 05:42:29;;;;;;;28.57;6.80;;;;;;;5.57;76.29;99942.48;1714198;83;21078;-40
2021/04/06 05:44:56;;;;;;;14.68;6.37;;;;;;;5.57;76.29;99942.48;1685682;83;21308;-43
2021/04/06 05:47:32;;;;;;;29.48;7.45;;;;;;;5.59;76.14;99960.02;1714039;83;21258;-42
2021/04/06 05:50:02;;;;;;;20.82;7.30;;;;;;;5.64;76.01;99967.25;1714083;83;21007;-40
2021/04/06 05:52:32;;;;;;;28.45;7.40;;;;;;;5.70;75.08;99961.23;1714193;83;21608;-42
2021/04/06 05:55:06;;;;;;;24.90;7.50;;;;;;;5.71;75.06;99963.81;1714053;83;21010;-42
2021/04/06 05:57:33;;;;;;;15.13;6.85;;;;;;;5.79;75.07;99968.03;1714048;83;21009;-42
2021/04/06 06:00:04;;;;;;;35.17;6.87;;;;;;;5.86;75.26;99972.26;1714027;83;21214;-42
2021/04/06 06:02:32;;;;;;;21.25;6.55;;;;;;;5.93;75.05;99965.38;1714043;83;21066;-42
2021/04/06 06:04:59;;;;;;;21.52;6.55;;;;;;;6.13;75.05;99965.24;1713983;83;21027;-42
2021/04/06 06:07:27;;;;;;;25.23;6.62;;;;;;;6.13;75.05;99965.24;1714081;83;20999;-42
2021/04/06 06:09:55;;;;;;;33.53;7.55;;;;;;;6.20;73.80;99968.63;1714082;83;20945;-42
2021/04/06 06:12:22;;;;;;;17.77;6.83;;;;;;;6.19;73.12;99967.79;1714082;83;21206;-42
2021/04/06 06:14:51;;;;;;;60.75;7.65;;;;;;;6.08;74.74;99962.73;1714007;83;21253;-43
2021/04/06 06:17:24;;;;;;;78.02;9.10;;;;;;;6.08;74.74;99962.73;1714015;83;21066;-42
2021/04/06 06:19:57;;;;;;;42.95;7.70;;;;;;;6.25;73.71;99974.16;1713977;83;21023;-42
2021/04/06 06:22:33;;;;;;;21.62;7.80;;;;;;;6.25;73.71;99974.16;1714147;82;21602;-41
2021/04/06 06:25:09;;;;;;;17.70;6.80;;;;;;;6.30;73.59;99980.52;1714270;83;21286;-41
2021/04/06 06:27:41;;;;;;;20.65;6.80;;;;;;;6.30;73.35;99977.53;1713989;83;21082;-43
2021/04/06 06:30:35;;;;;;;55.98;7.92;;;;;;;6.33;73.02;99978.79;1714032;83;20908;-42
2021/04/06 06:33:19;;;;;;;35.38;7.75;;;;;;;6.29;73.60;99985.25;1713997;83;20951;-42
2021/04/06 06:35:53;;;;;;;43.25;7.95;;;;;;;6.41;73.53;99986.86;1714100;83;21059;-43
2021/04/06 06:38:30;;;;;;;59.53;7.47;;;;;;;6.52;72.33;99978.64;1709350;83;21440;-41
2021/04/06 06:41:13;;;;;;;16.27;6.62;;;;;;;6.52;72.33;99978.64;1719662;83;21030;-42
2021/04/06 06:43:52;;;;;;;30.00;7.45;;;;;;;6.59;72.51;99984.58;1682808;84;21587;-41
2021/04/06 06:46:35;;;;;;;22.90;6.92;;;;;;;6.72;72.43;99983.58;1694511;83;21019;-41
2021/04/06 06:49:04;;;;;;;54.10;8.00;;;;;;;6.88;72.19;99981.69;1719000;83;21078;-41
2021/04/06 06:51:34;;;;;;;29.25;7.58;;;;;;;7.08;71.11;99970.33;1719715;83;21446;-41
2021/04/06 06:54:03;;;;;;;26.60;7.25;;;;;;;7.15;70.36;99991.71;1719573;83;21082;-42
2021/04/06 06:56:35;;;;;;;38.15;7.20;;;;;;;7.26;70.80;99984.70;1719817;83;21611;-42
2021/04/06 06:59:04;;;;;;;39.70;7.42;;;;;;;7.48;68.85;99990.45;1682671;85;21642;-42
2021/04/06 07:01:36;;;;;;;19.75;6.47;;;;;;;7.60;68.42;99975.27;1719733;82;21583;-42
2021/04/06 07:04:12;;;;;;;90.20;9.70;;;;;;;7.49;68.95;99983.55;1719774;83;22118;-42
2021/04/06 07:06:46;;;;;;;13.70;6.50;;;;;;;7.61;68.14;99987.69;1719622;82;20980;-42
2021/04/06 07:09:23;;;;;;;40.10;7.20;;;;;;;7.53;68.75;99986.50;1719697;82;21456;-42
2021/04/06 07:11:59;;;;;;;100.60;8.78;;;;;;;7.64;68.43;99982.49;1718795;83;21093;-42
2021/04/06 07:14:27;;;;;;;9.40;5.42;;;;;;;7.70;66.53;99981.11;1719664;82;21484;-41
2021/04/06 07:16:57;;;;;;;48.25;6.50;;;;;;;7.68;66.88;99977.70;1719626;83;21417;-41
2021/04/06 07:19:25;;;;;;;13.50;5.65;;;;;;;7.89;67.08;99987.30;1719596;82;21028;-41
2021/04/06 07:21:54;;;;;;;98.55;7.72;;;;;;;8.12;65.76;99974.50;1719671;83;21078;-42
2021/04/06 07:24:26;;;;;;;15.05;5.08;;;;;;;8.35;65.33;99975.42;1717314;83;21010;-43
2021/04/06 07:26:58;;;;;;;92.33;7.08;;;;;;;8.53;63.55;99976.86;1719662;82;21074;-41
2021/04/06 07:29:25;;;;;;;24.05;4.75;;;;;;;8.66;62.59;99963.30;1719621;83;21207;-43
2021/04/06 07:31:53;;;;;;;29.95;4.70;;;;;;;8.94;62.39;99972.23;1719601;83;21010;-43
2021/04/06 07:34:20;;;;;;;40.73;5.92;;;;;;;9.20;62.74;99968.70;1719661;83;21039;-41
2021/04/06 07:36:49;;;;;;;29.15;4.70;;;;;;;9.37;60.70;99964.92;1719612;83;20963;-41
2021/04/06 07:39:16;;;;;;;23.45;5.00;;;;;;;9.31;60.90;99967.64;1719586;83;21033;-42
2021/04/06 07:41:46;;;;;;;54.45;5.47;;;;;;;9.16;59.76;99976.10;1719661;83;21210;-41
2021/04/06 07:44:15;;;;;;;44.38;5.20;;;;;;;8.99;60.83;99971.28;1719611;83;21586;-41
2021/04/06 07:46:48;;;;;;;7.78;4.20;;;;;;;9.06;61.02;99960.39;1719762;83;21141;-42
2021/04/06 07:49:27;;;;;;;22.52;4.40;;;;;;;9.34;60.67;99966.28;1719671;82;21562;-42
2021/04/06 07:51:58;;;;;;;31.75;4.97;;;;;;;9.72;58.23;99959.41;1719225;83;21078;-41
2021/04/06 07:54:37;;;;;;;43.28;5.55;;;;;;;9.92;57.88;99959.39;1719648;83;21388;-41
2021/04/06 07:57:05;;;;;;;15.78;4.70;;;;;;;10.00;57.56;99957.50;1719537;83;21114;-43
2021/04/06 07:59:38;;;;;;;8.10;4.35;;;;;;;10.04;57.31;99965.58;1719617;83;21030;-43
2021/04/06 08:02:11;;;;;;;32.93;4.47;;;;;;;9.93;57.47;99968.84;1719556;82;20998;-42
2021/04/06 08:04:48;;;;;;;26.73;4.90;;;;;;;9.78;58.74;99967.05;1719605;83;21276;-42
2021/04/06 08:07:31;;;;;;;10.03;4.53;;;;;;;9.91;57.83;99964.16;1719669;83;21373;-42
2021/04/06 08:10:27;;;;;;;5.67;4.12;;;;;;;9.83;57.56;99962.20;1682572;85;21081;-42
2021/04/06 08:12:55;;;;;;;9.23;5.03;;;;;;;9.72;58.22;99973.62;1719595;83;20995;-41
2021/04/06 08:15:22;;;;;;;7.95;4.55;;;;;;;9.72;58.61;99960.70;1693229;83;21021;-43
2021/04/06 08:17:56;;;;;;;9.30;4.65;;;;;;;9.62;58.56;99959.22;1670445;83;20967;-42
2021/04/06 08:20:37;;;;;;;15.93;5.45;;;;;;;9.58;58.35;99962.76;1719599;82;21269;-42
2021/04/06 08:23:10;;;;;;;39.40;5.35;;;;;;;9.55;58.13;99966.70;1719585;83;20975;-42
2021/04/06 08:25:43;;;;;;;8.08;4.25;;;;;;;9.42;57.29;99968.25;1719855;83;21074;-44
2021/04/06 08:28:37;;;;;;;10.00;4.58;;;;;;;9.27;58.44;99980.21;1719772;83;21586;-43
2021/04/06 08:31:22;;;;;;;17.15;4.70;;;;;;;9.17;58.68;99981.67;1719745;82;20998;-42
2021/04/06 08:33:50;;;;;;;5.85;4.92;;;;;;;9.03;60.09;99978.08;1719771;83;21342;-42
2021/04/06 08:36:26;;;;;;;8.55;4.30;;;;;;;9.02;61.03;99971.67;1719703;83;20955;-42
2021/04/06 08:38:54;;;;;;;;;;;;;;;9.05;61.54;99989.68;1715964;83;21003;-42
2021/04/06 08:41:28;;;;;;;6.03;4.83;;;;;;;9.01;61.68;99988.88;1706238;84;20231;-41
2021/04/06 08:43:57;;;;;;;6.15;4.87;;;;;;;9.03;62.16;99975.95;1706241;83;21015;-42
2021/04/06 08:46:40;;;;;;;9.68;5.05;;;;;;;9.01;62.44;99987.59;1706279;84;21441;-42
2021/04/06 08:49:17;;;;;;;14.70;5.70;;;;;;;8.98;62.76;99982.48;1706149;82;20999;-42
2021/04/06 08:52:01;;;;;;;29.15;5.28;;;;;;;8.94;63.70;99984.72;1927864;73;22581;-43
2021/04/06 08:54:32;;;;;;;7.85;4.75;;;;;;;8.91;63.43;99989.48;1897732;75;20928;-42
2021/04/06 08:57:08;;;;;;;11.88;4.50;;;;;;;8.96;63.66;99987.25;1897568;75;21083;-42
2021/04/06 08:59:42;;;;;;;10.05;4.90;;;;;;;9.00;63.67;99976.85;1897723;75;21529;-42
2021/04/06 09:02:14;;;;;;;11.70;4.80;;;;;;;9.19;63.50;99972.16;1897600;75;20924;-42
2021/04/06 09:04:47;;;;;;;7.53;5.00;;;;;;;9.39;62.92;99978.66;1897501;75;21074;-41
2021/04/06 09:07:30;;;;;;;7.35;4.60;;;;;;;9.52;60.81;99961.16;1897605;75;21610;-42
2021/04/06 09:10:07;;;;;;;4.70;4.17;;;;;;;9.58;60.29;99966.64;1897553;75;21171;-42
2021/04/06 09:12:37;;;;;;;11.48;3.95;;;;;;;9.61;60.38;99969.15;1897926;75;21141;-42
2021/04/06 09:15:07;;;;;;;6.97;3.90;;;;;;;9.59;59.41;99965.30;1897534;75;20956;-43
2021/04/06 09:17:35;;;;;;;14.07;3.58;;;;;;;9.51;58.68;99976.25;1897601;75;20964;-43
2021/04/06 09:20:15;;;;;;;7.58;3.60;;;;;;;9.58;58.95;99962.76;1871027;75;21038;-42
2021/04/06 09:22:47;;;;;;;33.85;4.47;;;;;;;9.62;56.83;99961.80;1862497;77;21364;-42
2021/04/06 09:25:24;;;;;;;13.53;3.98;;;;;;;9.82;56.36;99970.84;1862414;77;21019;-42
2021/04/06 09:28:03;;;;;;;4.95;3.10;;;;;;;9.87;56.25;99966.41;1862353;77;21062;-42
2021/04/06 09:30:37;;;;;;;6.20;3.33;;;;;;;9.89;56.35;99974.55;1862387;77;21583;-46
2021/04/06 09:33:09;;;;;;;4.07;3.17;;;;;;;10.05;55.62;99969.86;1862739;77;20987;-42
2021/04/06 09:35:37;;;;;;;6.05;3.20;;;;;;;10.13;55.50;99961.93;1862499;77;21359;-43
2021/04/06 09:38:05;;;;;;;5.47;3.47;;;;;;;10.14;55.84;99969.23;1862366;77;20980;-43
2021/04/06 09:40:37;;;;;;;10.35;3.62;;;;;;;10.24;55.60;99964.68;1862592;77;20979;-42
2021/04/06 09:43:05;;;;;;;4.33;3.20;;;;;;;10.23;55.54;99961.27;1862469;77;21022;-42
2021/04/06 09:45:34;;;;;;;20.60;3.70;;;;;;;10.27;55.16;99951.66;1862486;77;21011;-46
2021/04/06 09:48:02;;;;;;;14.07;3.47;;;;;;;10.42;55.86;99957.79;1862499;77;21325;-42
2021/04/06 09:50:31;;;;;;;8.88;3.42;;;;;;;10.65;55.94;99960.22;1862361;77;21039;-42
2021/04/06 09:52:59;;;;;;;8.63;3.15;;;;;;;10.91;55.42;99956.08;1862445;77;21145;-44
2021/04/06 09:55:29;;;;;;;11.50;3.85;;;;;;;11.03;54.70;99954.88;1862523;77;21003;-43
2021/04/06 09:58:02;;;;;;;10.15;2.72;;;;;;;11.03;54.95;99948.41;1862539;77;21556;-42
2021/04/06 10:00:32;;;;;;;10.28;2.47;;;;;;;10.91;54.17;99959.50;1862547;77;21323;-41
2021/04/06 10:03:14;;;;;;;11.60;2.65;;;;;;;10.68;54.50;99968.33;1861829;77;20939;-42
2021/04/06 10:05:44;;;;;;;9.58;2.65;;;;;;;10.41;55.34;99970.33;1861879;77;20920;-42
2021/04/06 10:08:25;;;;;;;6.87;2.37;;;;;;;10.45;56.92;99964.60;1861903;77;21003;-42
2021/04/06 10:10:55;;;;;;;11.40;2.75;;;;;;;10.77;56.12;99951.28;1861860;77;21003;-42
2021/04/06 10:13:24;;;;;;;10.35;2.27;;;;;;;11.19;55.06;99936.69;1861949;76;21366;-43
2021/04/06 10:16:04;;;;;;;6.47;2.70;;;;;;;11.45;53.19;99944.14;1861819;77;20964;-43
2021/04/06 10:18:41;;;;;;;14.43;3.30;;;;;;;11.40;53.69;99935.66;1861803;75;21066;-43
2021/04/06 10:21:21;;;;;;;11.45;2.65;;;;;;;11.32;54.41;99945.41;1861856;77;20999;-43
2021/04/06 10:23:48;;;;;;;11.28;2.67;;;;;;;11.27;53.74;99949.42;1861944;77;21022;-43
2021/04/06 10:26:22;;;;;;;9.60;2.85;;;;;;;11.16;53.26;99941.97;1861887;77;21228;-42
2021/04/06 10:29:09;;;;;;;24.63;2.80;;;;;;;11.10;53.39;99943.88;1861930;77;21461;-42
2021/04/06 10:31:52;;;;;;;13.20;2.47;;;;;;;11.09;52.67;99954.70;1861931;77;21003;-43
2021/04/06 10:34:20;;;;;;;6.53;2.47;;;;;;;11.09;50.91;99944.77;1861798;77;21456;-41
2021/04/06 11:37:15;;;;;;;48.40;4.45;;;;;;;11.53;48.65;99866.62;1781122;80;23696;-42
2021/04/06 11:39:45;;;;;;;35.28;3.90;;;;;;;11.52;48.01;99876.59;1757759;81;20986;-43
2021/04/06 11:42:14;;;;;;;14.10;4.03;;;;;;;11.50;48.01;99867.12;1757795;81;21468;-42
2021/04/06 11:44:44;;;;;;;21.97;4.12;;;;;;;11.52;47.85;99870.11;1757676;81;21070;-42
2021/04/06 11:47:12;;;;;;;16.77;3.50;;;;;;;11.58;48.30;99868.14;1757729;81;21078;-44
2021/04/06 11:49:41;;;;;;;11.95;2.98;;;;;;;11.59;47.88;99876.32;1757698;81;21038;-41
2021/04/06 11:52:08;;;;;;;18.57;3.90;;;;;;;11.66;46.90;99860.12;1757763;81;20911;-43
2021/04/06 11:54:37;;;;;;;57.83;4.50;;;;;;;11.74;46.88;99869.79;1757642;81;21201;-43
2021/04/06 11:57:05;;;;;;;12.50;3.10;;;;;;;12.14;46.14;99862.91;1757607;81;21002;-44
2021/04/06 11:59:34;;;;;;;21.80;3.10;;;;;;;12.35;44.81;99856.98;1757694;80;21030;-43
2021/04/06 12:02:03;;;;;;;26.30;4.00;;;;;;;12.36;45.23;99847.00;1757797;80;21634;-44
2021/04/06 12:04:32;;;;;;;17.15;2.40;;;;;;;12.50;44.60;99843.05;1757761;81;20980;-42
2021/04/06 12:07:00;;;;;;;20.08;3.05;;;;;;;12.46;44.37;99845.36;1757772;80;21375;-41
2021/04/06 12:09:28;;;;;;;56.35;5.03;;;;;;;12.34;45.07;99851.39;1757624;81;21014;-42
2021/04/06 12:11:55;;;;;;;21.57;2.27;;;;;;;12.36;45.48;99844.84;1757628;81;20928;-43
2021/04/06 12:14:23;;;;;;;10.80;2.17;;;;;;;12.40;44.08;99832.61;1757617;81;20963;-44
2021/04/06 12:16:51;;;;;;;23.30;2.35;;;;;;;12.40;44.26;99829.58;1757642;81;21050;-43
2021/04/06 12:19:19;;;;;;;20.60;2.08;;;;;;;12.36;42.58;99817.59;1757658;81;21366;-43
2021/04/06 12:21:49;;;;;;;157.57;7.87;;;;;;;12.27;44.17;99821.39;1757635;81;21227;-42
2021/04/06 12:24:17;;;;;;;25.72;2.83;;;;;;;12.23;43.31;99817.17;1757718;81;21002;-43
2021/04/06 12:26:45;;;;;;;56.88;4.25;;;;;;;12.19;44.12;99815.16;1757661;81;21030;-42
2021/04/06 12:29:12;;;;;;;41.08;3.08;;;;;;;12.45;43.36;99812.52;1757709;81;21106;-42
2021/04/06 12:31:40;;;;;;;13.53;2.25;;;;;;;12.71;42.76;99808.11;1757654;81;21213;-42
2021/04/06 12:34:08;;;;;;;15.18;1.95;;;;;;;13.01;42.12;99802.64;1757592;81;20919;-42
2021/04/06 12:36:37;;;;;;;26.23;2.42;;;;;;;13.40;41.84;99810.25;1733538;80;20959;-42
2021/04/06 12:39:07;;;;;;;66.75;4.10;;;;;;;13.53;39.25;99798.92;1716261;82;21023;-45
2021/04/06 12:41:36;;;;;;;34.25;3.55;;;;;;;13.30;40.09;99803.27;1718958;82;21043;-42
2021/04/06 12:44:04;;;;;;;70.45;4.65;;;;;;;13.41;39.34;99795.87;1719061;83;21396;-42
2021/04/06 12:46:31;;;;;;;35.88;2.40;;;;;;;13.53;39.03;99799.75;1718812;82;21007;-42
2021/04/06 12:48:59;;;;;;;75.30;3.62;;;;;;;13.45;39.07;99807.86;1699891;83;21026;-42
2021/04/06 12:51:27;;;;;;;27.93;2.08;;;;;;;13.28;39.32;99801.19;1718507;82;21027;-44
2021/04/06 12:53:54;;;;;;;24.05;1.77;;;;;;;13.34;40.32;99797.03;1718543;83;21477;-41